createdAt,value
2023-02-26T00:00:58.061Z,1007.16
2023-02-26T00:01:58.087Z,1007.17
2023-02-26T00:02:58.044Z,1007.16
2023-02-26T00:03:58.043Z,1007.13
2023-02-26T00:04:57.982Z,1007.19
2023-02-26T00:05:57.979Z,1007.22
2023-02-26T00:06:59.570Z,1007.18
2023-02-26T00:07:57.978Z,1007.24
2023-02-26T00:08:57.943Z,1007.21
2023-02-26T00:09:57.960Z,1007.25
2023-02-26T00:10:57.938Z,1007.21
2023-02-26T00:11:57.907Z,1007.23
2023-02-26T00:12:57.918Z,1007.27
2023-02-26T00:13:57.897Z,1007.25
2023-02-26T00:14:57.878Z,1007.36
2023-02-26T00:15:57.884Z,1007.37
2023-02-26T00:16:57.898Z,1007.35
2023-02-26T00:17:57.968Z,1007.36
2023-02-26T00:18:57.853Z,1007.43
2023-02-26T00:19:57.833Z,1007.45
2023-02-26T00:20:57.814Z,1007.44
2023-02-26T00:21:57.801Z,1007.53
2023-02-26T00:22:57.838Z,1007.49
2023-02-26T00:23:57.789Z,1007.55
2023-02-26T00:24:57.770Z,1007.60
2023-02-26T00:25:57.785Z,1007.60
2023-02-26T00:26:57.748Z,1007.59
2023-02-26T00:27:57.758Z,1007.64
2023-02-26T00:28:57.724Z,1007.61
2023-02-26T00:29:57.720Z,1007.60
2023-02-26T00:30:57.803Z,1007.67
2023-02-26T00:31:57.777Z,1007.72
2023-02-26T00:32:57.724Z,1007.72
2023-02-26T00:33:57.686Z,1007.75
2023-02-26T00:34:57.660Z,1007.72
2023-02-26T00:35:57.652Z,1007.68
2023-02-26T00:36:57.637Z,1007.71
2023-02-26T00:37:57.650Z,1007.77
2023-02-26T00:38:57.618Z,1007.74
2023-02-26T00:39:57.605Z,1007.71
2023-02-26T00:40:57.602Z,1007.72
2023-02-26T00:41:57.606Z,1007.74
2023-02-26T00:42:57.627Z,1007.68
2023-02-26T00:43:57.569Z,1007.74
2023-02-26T00:44:57.552Z,1007.72
2023-02-26T00:45:57.584Z,1007.72
2023-02-26T00:46:57.535Z,1007.74
2023-02-26T00:47:57.535Z,1007.75
2023-02-26T00:48:57.508Z,1007.85
2023-02-26T00:49:57.505Z,1007.85
2023-02-26T00:50:57.564Z,1007.85
2023-02-26T00:51:57.488Z,1007.87
2023-02-26T00:52:57.493Z,1007.88
2023-02-26T00:53:57.476Z,1007.89
2023-02-26T00:54:57.449Z,1007.94
2023-02-26T00:55:57.439Z,1007.94
2023-02-26T00:56:57.426Z,1007.90
2023-02-26T00:57:57.464Z,1007.90
2023-02-26T00:58:57.426Z,1007.95
2023-02-26T00:59:57.395Z,1007.97
2023-02-26T01:00:57.419Z,1008.00
2023-02-26T01:01:57.377Z,1007.98
2023-02-26T01:02:57.367Z,1008.02
2023-02-26T01:03:57.436Z,1007.99
2023-02-26T01:04:57.342Z,1007.99
2023-02-26T01:05:57.331Z,1008.02
2023-02-26T01:06:57.314Z,1008.01
2023-02-26T01:07:57.311Z,1007.96
2023-02-26T01:08:57.304Z,1008.04
2023-02-26T01:09:57.293Z,1007.99
2023-02-26T01:10:57.272Z,1007.99
2023-02-26T01:11:57.266Z,1008.04
2023-02-26T01:12:57.247Z,1008.01
2023-02-26T01:13:57.280Z,1008.08
2023-02-26T01:14:57.227Z,1008.07
2023-02-26T01:15:57.246Z,1008.12
2023-02-26T01:16:57.204Z,1008.11
2023-02-26T01:17:57.203Z,1008.05
2023-02-26T01:18:57.217Z,1008.13
2023-02-26T01:19:57.175Z,1008.07
2023-02-26T01:20:57.159Z,1008.10
2023-02-26T01:21:57.199Z,1008.15
2023-02-26T01:22:57.144Z,1008.08
2023-02-26T01:23:57.157Z,1008.08
2023-02-26T01:24:57.116Z,1008.10
2023-02-26T01:25:57.115Z,1008.13
2023-02-26T01:26:57.114Z,1008.18
2023-02-26T01:27:57.089Z,1008.18
2023-02-26T01:28:57.082Z,1008.18
2023-02-26T01:29:57.090Z,1008.18
2023-02-26T01:30:57.180Z,1008.22
2023-02-26T01:31:57.230Z,1008.18
2023-02-26T01:32:57.034Z,1008.28
2023-02-26T01:33:57.047Z,1008.19
2023-02-26T01:34:57.009Z,1008.21
2023-02-26T01:35:57.003Z,1008.21
2023-02-26T01:36:57.013Z,1008.20
2023-02-26T01:37:56.993Z,1008.20
2023-02-26T01:38:56.967Z,1008.22
2023-02-26T01:39:56.980Z,1008.23
2023-02-26T01:40:56.950Z,1008.23
2023-02-26T01:41:56.957Z,1008.22
2023-02-26T01:42:56.929Z,1008.20
2023-02-26T01:43:56.930Z,1008.19
2023-02-26T01:44:56.912Z,1008.22
2023-02-26T01:45:56.921Z,1008.22
2023-02-26T01:46:56.956Z,1008.25
2023-02-26T01:47:56.884Z,1008.26
2023-02-26T01:48:56.906Z,1008.28
2023-02-26T01:49:56.883Z,1008.25
2023-02-26T01:50:56.843Z,1008.30
2023-02-26T01:51:56.832Z,1008.36
2023-02-26T01:52:56.825Z,1008.30
2023-02-26T01:53:56.832Z,1008.35
2023-02-26T01:54:56.810Z,1008.33
2023-02-26T01:55:56.796Z,1008.35
2023-02-26T01:56:56.806Z,1008.35
2023-02-26T01:57:56.771Z,1008.36
2023-02-26T01:58:56.788Z,1008.38
2023-02-26T01:59:56.762Z,1008.41
2023-02-26T02:00:56.738Z,1008.44
2023-02-26T02:01:56.779Z,1008.43
2023-02-26T02:02:56.886Z,1008.44
2023-02-26T02:03:56.741Z,1008.46
2023-02-26T02:04:56.691Z,1008.54
2023-02-26T02:05:56.682Z,1008.52
2023-02-26T02:06:56.678Z,1008.51
2023-02-26T02:07:56.673Z,1008.47
2023-02-26T02:08:56.679Z,1008.54
2023-02-26T02:09:56.670Z,1008.51
2023-02-26T02:10:56.708Z,1008.49
2023-02-26T02:11:56.637Z,1008.58
2023-02-26T02:12:56.633Z,1008.60
2023-02-26T02:13:56.635Z,1008.67
2023-02-26T02:14:56.598Z,1008.60
2023-02-26T02:15:56.647Z,1008.67
2023-02-26T02:16:56.598Z,1008.71
2023-02-26T02:17:56.600Z,1008.69
2023-02-26T02:18:56.568Z,1008.73
2023-02-26T02:19:56.535Z,1008.68
2023-02-26T02:20:56.540Z,1008.70
2023-02-26T02:21:56.530Z,1008.73
2023-02-26T02:22:56.499Z,1008.80
2023-02-26T02:23:56.523Z,1008.76
2023-02-26T02:24:56.473Z,1008.81
2023-02-26T02:25:56.470Z,1008.80
2023-02-26T02:26:56.448Z,1008.84
2023-02-26T02:27:56.440Z,1008.84
2023-02-26T02:28:56.467Z,1008.86
2023-02-26T02:29:56.419Z,1008.88
2023-02-26T02:30:56.446Z,1008.94
2023-02-26T02:31:56.577Z,1008.94
2023-02-26T02:32:56.469Z,1008.90
2023-02-26T02:33:56.440Z,1008.92
2023-02-26T02:34:56.377Z,1008.92
2023-02-26T02:35:56.360Z,1008.93
2023-02-26T02:36:56.348Z,1008.98
2023-02-26T02:37:56.336Z,1008.93
2023-02-26T02:38:56.383Z,1008.92
2023-02-26T02:39:56.316Z,1008.97
2023-02-26T02:40:56.298Z,1008.95
2023-02-26T02:41:56.289Z,1008.98
2023-02-26T02:42:56.315Z,1008.98
2023-02-26T02:43:56.326Z,1009.00
2023-02-26T02:44:56.288Z,1009.03
2023-02-26T02:45:56.302Z,1009.07
2023-02-26T02:46:56.336Z,1009.06
2023-02-26T02:47:56.224Z,1009.11
2023-02-26T02:48:56.233Z,1009.09
2023-02-26T02:49:56.218Z,1009.04
2023-02-26T02:50:56.205Z,1009.10
2023-02-26T02:51:56.185Z,1009.11
2023-02-26T02:52:56.166Z,1009.14
2023-02-26T02:53:56.211Z,1009.12
2023-02-26T02:54:56.174Z,1009.12
2023-02-26T02:55:56.145Z,1009.14
2023-02-26T02:56:56.134Z,1009.22
2023-02-26T02:57:56.118Z,1009.16
2023-02-26T02:58:56.141Z,1009.15
2023-02-26T02:59:56.099Z,1009.17
2023-02-26T03:00:56.129Z,1009.20
2023-02-26T03:01:56.112Z,1009.17
2023-02-26T03:02:56.098Z,1009.15
2023-02-26T03:03:56.077Z,1009.22
2023-02-26T03:04:56.042Z,1009.21
2023-02-26T03:05:56.053Z,1009.22
2023-02-26T03:06:56.019Z,1009.21
2023-02-26T03:07:56.007Z,1009.24
2023-02-26T03:08:56.034Z,1009.26
2023-02-26T03:09:55.993Z,1009.22
2023-02-26T03:10:55.987Z,1009.24
2023-02-26T03:11:55.971Z,1009.26
2023-02-26T03:12:55.959Z,1009.27
2023-02-26T03:13:55.965Z,1009.24
2023-02-26T03:14:55.947Z,1009.29
2023-02-26T03:15:55.930Z,1009.33
2023-02-26T03:16:55.922Z,1009.40
2023-02-26T03:17:55.909Z,1009.41
2023-02-26T03:18:55.926Z,1009.45
2023-02-26T03:19:55.891Z,1009.44
2023-02-26T03:20:55.882Z,1009.46
2023-02-26T03:21:55.883Z,1009.50
2023-02-26T03:22:55.855Z,1009.46
2023-02-26T03:23:55.857Z,1009.48
2023-02-26T03:24:55.833Z,1009.48
2023-02-26T03:25:55.820Z,1009.53
2023-02-26T03:26:55.818Z,1009.51
2023-02-26T03:27:55.801Z,1009.50
2023-02-26T03:28:55.808Z,1009.48
2023-02-26T03:29:55.782Z,1009.52
2023-02-26T03:30:55.799Z,1009.52
2023-02-26T03:31:55.882Z,1009.54
2023-02-26T03:32:55.765Z,1009.61
2023-02-26T03:33:55.761Z,1009.62
2023-02-26T03:34:55.730Z,1009.64
2023-02-26T03:35:55.726Z,1009.68
2023-02-26T03:36:55.711Z,1009.65
2023-02-26T03:37:55.714Z,1009.69
2023-02-26T03:38:55.730Z,1009.72
2023-02-26T03:39:55.669Z,1009.76
2023-02-26T03:40:55.666Z,1009.70
2023-02-26T03:41:55.648Z,1009.76
2023-02-26T03:42:55.649Z,1009.78
2023-02-26T03:43:55.649Z,1009.85
2023-02-26T03:44:55.640Z,1009.82
2023-02-26T03:45:55.610Z,1009.83
2023-02-26T03:46:55.603Z,1009.85
2023-02-26T03:47:55.590Z,1009.91
2023-02-26T03:48:55.661Z,1009.90
2023-02-26T03:49:55.572Z,1009.89
2023-02-26T03:50:55.561Z,1009.92
2023-02-26T03:51:55.545Z,1009.95
2023-02-26T03:52:55.548Z,1009.95
2023-02-26T03:53:55.560Z,1009.99
2023-02-26T03:54:56.262Z,1010.04
2023-02-26T03:55:55.498Z,1010.05
2023-02-26T03:56:55.535Z,1010.06
2023-02-26T03:57:55.501Z,1010.05
2023-02-26T03:58:55.516Z,1010.11
2023-02-26T03:59:55.461Z,1010.08
2023-02-26T04:00:55.449Z,1010.16
2023-02-26T04:01:55.641Z,1010.20
2023-02-26T04:02:55.440Z,1010.17
2023-02-26T04:03:55.467Z,1010.21
2023-02-26T04:04:55.407Z,1010.23
2023-02-26T04:05:55.391Z,1010.20
2023-02-26T04:06:55.401Z,1010.19
2023-02-26T04:07:55.376Z,1010.21
2023-02-26T04:08:55.398Z,1010.23
2023-02-26T04:09:55.366Z,1010.21
2023-02-26T04:10:55.343Z,1010.22
2023-02-26T04:11:55.326Z,1010.26
2023-02-26T04:12:55.318Z,1010.24
2023-02-26T04:13:55.328Z,1010.27
2023-02-26T04:14:55.291Z,1010.26
2023-02-26T04:15:55.286Z,1010.24
2023-02-26T04:16:55.306Z,1010.29
2023-02-26T04:17:55.260Z,1010.35
2023-02-26T04:18:55.253Z,1010.34
2023-02-26T04:19:55.274Z,1010.34
2023-02-26T04:20:55.245Z,1010.36
2023-02-26T04:21:55.215Z,1010.38
2023-02-26T04:22:55.237Z,1010.37
2023-02-26T04:23:55.194Z,1010.38
2023-02-26T04:24:55.230Z,1010.37
2023-02-26T04:25:55.196Z,1010.35
2023-02-26T04:27:02.916Z,1010.41
2023-02-26T04:27:55.148Z,1010.41
2023-02-26T04:28:55.159Z,1010.41
2023-02-26T04:29:55.124Z,1010.45
2023-02-26T04:30:55.267Z,1010.41
2023-02-26T04:31:55.310Z,1010.44
2023-02-26T04:32:55.091Z,1010.47
2023-02-26T04:33:55.103Z,1010.51
2023-02-26T04:34:55.098Z,1010.45
2023-02-26T04:35:55.057Z,1010.48
2023-02-26T04:36:55.052Z,1010.59
2023-02-26T04:37:55.040Z,1010.50
2023-02-26T04:38:55.031Z,1010.55
2023-02-26T04:39:55.037Z,1010.56
2023-02-26T04:40:55.004Z,1010.62
2023-02-26T04:41:55.014Z,1010.66
2023-02-26T04:42:55.097Z,1010.69
2023-02-26T04:43:54.979Z,1010.68
2023-02-26T04:44:54.979Z,1010.70
2023-02-26T04:45:54.969Z,1010.71
2023-02-26T04:46:54.943Z,1010.75
2023-02-26T04:47:54.993Z,1010.77
2023-02-26T04:48:54.925Z,1010.80
2023-02-26T04:49:54.922Z,1010.80
2023-02-26T04:50:54.908Z,1010.78
2023-02-26T04:51:54.933Z,1010.82
2023-02-26T04:52:54.891Z,1010.86
2023-02-26T04:53:54.873Z,1010.83
2023-02-26T04:54:54.867Z,1010.81
2023-02-26T04:55:54.842Z,1010.83
2023-02-26T04:56:54.838Z,1010.84
2023-02-26T04:57:54.834Z,1010.88
2023-02-26T04:58:54.817Z,1010.82
2023-02-26T04:59:54.811Z,1010.93
2023-02-26T05:00:54.843Z,1010.91
2023-02-26T05:01:54.817Z,1010.89
2023-02-26T05:02:54.776Z,1010.89
2023-02-26T05:03:54.751Z,1010.95
2023-02-26T05:04:54.768Z,1010.94
2023-02-26T05:05:54.741Z,1010.94
2023-02-26T05:06:54.736Z,1010.97
2023-02-26T05:07:54.717Z,1010.94
2023-02-26T05:08:54.708Z,1010.99
2023-02-26T05:09:54.709Z,1010.99
2023-02-26T05:10:54.688Z,1011.01
2023-02-26T05:11:54.672Z,1010.98
2023-02-26T05:12:54.661Z,1010.99
2023-02-26T05:13:54.670Z,1011.07
2023-02-26T05:14:54.697Z,1010.99
2023-02-26T05:15:54.665Z,1011.11
2023-02-26T05:16:54.617Z,1011.12
2023-02-26T05:17:54.603Z,1011.09
2023-02-26T05:18:54.598Z,1011.14
2023-02-26T05:19:54.596Z,1011.12
2023-02-26T05:20:54.570Z,1011.19
2023-02-26T05:21:54.574Z,1011.17
2023-02-26T05:22:54.552Z,1011.21
2023-02-26T05:23:54.551Z,1011.17
2023-02-26T05:24:54.549Z,1011.18
2023-02-26T05:25:54.530Z,1011.22
2023-02-26T05:26:54.520Z,1011.22
2023-02-26T05:27:54.503Z,1011.26
2023-02-26T05:28:54.494Z,1011.25
2023-02-26T05:29:54.528Z,1011.30
2023-02-26T05:30:54.620Z,1011.28
2023-02-26T05:31:54.601Z,1011.31
2023-02-26T05:32:54.444Z,1011.28
2023-02-26T05:33:54.436Z,1011.40
2023-02-26T05:34:54.445Z,1011.34
2023-02-26T05:35:54.410Z,1011.41
2023-02-26T05:36:54.397Z,1011.36
2023-02-26T05:37:54.393Z,1011.40
2023-02-26T05:38:54.388Z,1011.47
2023-02-26T05:39:54.387Z,1011.43
2023-02-26T05:40:54.364Z,1011.45
2023-02-26T05:41:54.348Z,1011.48
2023-02-26T05:42:54.334Z,1011.51
2023-02-26T05:43:54.329Z,1011.49
2023-02-26T05:44:54.351Z,1011.56
2023-02-26T05:45:54.326Z,1011.48
2023-02-26T05:46:54.359Z,1011.59
2023-02-26T05:47:54.282Z,1011.60
2023-02-26T05:48:54.272Z,1011.63
2023-02-26T05:49:54.286Z,1011.65
2023-02-26T05:50:54.249Z,1011.63
2023-02-26T05:51:54.243Z,1011.70
2023-02-26T05:52:54.236Z,1011.68
2023-02-26T05:53:54.219Z,1011.69
2023-02-26T05:54:54.225Z,1011.71
2023-02-26T05:55:54.191Z,1011.69
2023-02-26T05:56:54.182Z,1011.67
2023-02-26T05:57:54.172Z,1011.70
2023-02-26T05:58:54.179Z,1011.69
2023-02-26T05:59:54.162Z,1011.68
2023-02-26T06:00:54.154Z,1011.71
2023-02-26T06:01:54.191Z,1011.71
2023-02-26T06:02:54.164Z,1011.75
2023-02-26T06:03:54.106Z,1011.73
2023-02-26T06:04:54.112Z,1011.72
2023-02-26T06:05:54.086Z,1011.82
2023-02-26T06:06:54.077Z,1011.75
2023-02-26T06:07:54.065Z,1011.80
2023-02-26T06:08:54.054Z,1011.83
2023-02-26T06:09:54.062Z,1011.78
2023-02-26T06:10:54.032Z,1011.81
2023-02-26T06:11:54.027Z,1011.85
2023-02-26T06:12:54.006Z,1011.86
2023-02-26T06:13:54.002Z,1011.82
2023-02-26T06:14:54.000Z,1011.88
2023-02-26T06:15:54.070Z,1011.91
2023-02-26T06:16:53.968Z,1011.91
2023-02-26T06:17:53.975Z,1011.91
2023-02-26T06:18:53.946Z,1011.94
2023-02-26T06:19:53.954Z,1011.96
2023-02-26T06:20:53.923Z,1011.99
2023-02-26T06:21:53.911Z,1012.05
2023-02-26T06:22:53.901Z,1012.02
2023-02-26T06:23:53.883Z,1012.09
2023-02-26T06:24:53.891Z,1012.10
2023-02-26T06:25:53.863Z,1012.14
2023-02-26T06:26:53.854Z,1012.12
2023-02-26T06:27:53.845Z,1012.15
2023-02-26T06:28:53.836Z,1012.19
2023-02-26T06:29:53.845Z,1012.21
2023-02-26T06:30:53.897Z,1012.21
2023-02-26T06:31:53.992Z,1012.28
2023-02-26T06:32:53.791Z,1012.26
2023-02-26T06:33:53.799Z,1012.23
2023-02-26T06:34:53.859Z,1012.25
2023-02-26T06:35:53.774Z,1012.25
2023-02-26T06:36:53.755Z,1012.30
2023-02-26T06:37:53.739Z,1012.33
2023-02-26T06:38:53.741Z,1012.31
2023-02-26T06:39:53.735Z,1012.37
2023-02-26T06:40:53.714Z,1012.38
2023-02-26T06:41:53.719Z,1012.37
2023-02-26T06:42:53.688Z,1012.43
2023-02-26T06:43:53.682Z,1012.39
2023-02-26T06:44:53.681Z,1012.34
2023-02-26T06:45:53.686Z,1012.36
2023-02-26T06:46:53.647Z,1012.36
2023-02-26T06:47:53.634Z,1012.39
2023-02-26T06:48:53.633Z,1012.42
2023-02-26T06:49:53.662Z,1012.48
2023-02-26T06:50:53.605Z,1012.49
2023-02-26T06:51:53.592Z,1012.51
2023-02-26T06:52:53.581Z,1012.54
2023-02-26T06:53:53.569Z,1012.54
2023-02-26T06:54:53.590Z,1012.53
2023-02-26T06:55:53.561Z,1012.52
2023-02-26T06:56:53.541Z,1012.43
2023-02-26T06:57:53.531Z,1012.48
2023-02-26T06:58:53.518Z,1012.46
2023-02-26T06:59:53.555Z,1012.45
2023-02-26T07:00:53.605Z,1012.49
2023-02-26T07:01:53.483Z,1012.51
2023-02-26T07:02:53.476Z,1012.53
2023-02-26T07:03:53.462Z,1012.58
2023-02-26T07:04:53.461Z,1012.61
2023-02-26T07:05:53.462Z,1012.62
2023-02-26T07:06:53.428Z,1012.66
2023-02-26T07:07:53.416Z,1012.65
2023-02-26T07:08:53.443Z,1012.68
2023-02-26T07:09:53.413Z,1012.70
2023-02-26T07:10:53.382Z,1012.74
2023-02-26T07:11:53.372Z,1012.75
2023-02-26T07:12:53.368Z,1012.75
2023-02-26T07:13:53.357Z,1012.78
2023-02-26T07:14:53.350Z,1012.77
2023-02-26T07:15:53.336Z,1012.81
2023-02-26T07:16:53.396Z,1012.73
2023-02-26T07:17:53.307Z,1012.78
2023-02-26T07:18:53.301Z,1012.87
2023-02-26T07:19:53.297Z,1012.85
2023-02-26T07:20:53.281Z,1012.93
2023-02-26T07:21:53.280Z,1012.96
2023-02-26T07:22:53.260Z,1012.93
2023-02-26T07:23:53.239Z,1013.01
2023-02-26T07:24:53.248Z,1013.06
2023-02-26T07:25:53.217Z,1013.11
2023-02-26T07:26:53.219Z,1013.09
2023-02-26T07:27:53.201Z,1013.09
2023-02-26T07:28:53.183Z,1013.10
2023-02-26T07:29:53.184Z,1013.11
2023-02-26T07:30:53.236Z,1013.14
2023-02-26T07:31:53.321Z,1013.10
2023-02-26T07:32:53.279Z,1013.16
2023-02-26T07:33:53.136Z,1013.15
2023-02-26T07:34:53.169Z,1013.20
2023-02-26T07:35:53.152Z,1013.18
2023-02-26T07:36:53.274Z,1013.26
2023-02-26T07:37:53.106Z,1013.27
2023-02-26T07:38:53.071Z,1013.26
2023-02-26T07:39:53.091Z,1013.35
2023-02-26T07:40:53.050Z,1013.36
2023-02-26T07:41:53.039Z,1013.44
2023-02-26T07:42:53.028Z,1013.49
2023-02-26T07:43:53.047Z,1013.52
2023-02-26T07:44:53.053Z,1013.50
2023-02-26T07:45:53.092Z,1013.58
2023-02-26T07:46:52.989Z,1013.57
2023-02-26T07:47:52.978Z,1013.54
2023-02-26T07:48:52.962Z,1013.44
2023-02-26T07:49:52.962Z,1013.54
2023-02-26T07:50:52.984Z,1013.54
2023-02-26T07:51:52.972Z,1013.50
2023-02-26T07:52:52.918Z,1013.56
2023-02-26T07:53:52.934Z,1013.58
2023-02-26T07:54:52.893Z,1013.47
2023-02-26T07:55:52.904Z,1013.55
2023-02-26T07:56:52.874Z,1013.60
2023-02-26T07:57:52.863Z,1013.58
2023-02-26T07:58:52.847Z,1013.53
2023-02-26T07:59:52.839Z,1013.55
2023-02-26T08:00:52.836Z,1013.56
2023-02-26T08:01:52.822Z,1013.62
2023-02-26T08:02:52.836Z,1013.62
2023-02-26T08:03:52.814Z,1013.60
2023-02-26T08:04:52.785Z,1013.66
2023-02-26T08:05:52.798Z,1013.58
2023-02-26T08:06:52.777Z,1013.63
2023-02-26T08:07:52.764Z,1013.61
2023-02-26T08:08:52.748Z,1013.65
2023-02-26T08:09:52.749Z,1013.69
2023-02-26T08:10:52.741Z,1013.69
2023-02-26T08:11:52.717Z,1013.72
2023-02-26T08:12:52.698Z,1013.66
2023-02-26T08:13:52.684Z,1013.77
2023-02-26T08:14:52.672Z,1013.74
2023-02-26T08:15:52.748Z,1013.77
2023-02-26T08:16:52.649Z,1013.74
2023-02-26T08:17:52.643Z,1013.79
2023-02-26T08:18:52.645Z,1013.77
2023-02-26T08:19:52.626Z,1013.74
2023-02-26T08:20:52.635Z,1013.83
2023-02-26T08:21:52.621Z,1013.77
2023-02-26T08:22:52.592Z,1013.81
2023-02-26T08:23:52.598Z,1013.84
2023-02-26T08:24:52.565Z,1013.85
2023-02-26T08:25:52.627Z,1013.86
2023-02-26T08:26:52.548Z,1013.91
2023-02-26T08:27:52.531Z,1013.91
2023-02-26T08:28:52.545Z,1013.89
2023-02-26T08:29:52.513Z,1013.93
2023-02-26T08:30:52.570Z,1014.01
2023-02-26T08:31:52.621Z,1014.05
2023-02-26T08:32:52.484Z,1014.01
2023-02-26T08:33:52.466Z,1014.04
2023-02-26T08:34:52.498Z,1014.08
2023-02-26T08:35:52.463Z,1014.07
2023-02-26T08:36:52.437Z,1014.10
2023-02-26T08:37:52.426Z,1014.09
2023-02-26T08:38:52.415Z,1014.13
2023-02-26T08:39:52.406Z,1014.07
2023-02-26T08:40:52.398Z,1014.12
2023-02-26T08:41:52.410Z,1014.14
2023-02-26T08:42:52.369Z,1014.08
2023-02-26T08:43:52.356Z,1014.17
2023-02-26T08:44:52.344Z,1014.15
2023-02-26T08:45:52.362Z,1014.17
2023-02-26T08:46:52.351Z,1014.20
2023-02-26T08:47:57.295Z,1014.18
2023-02-26T08:48:53.301Z,1014.17
2023-02-26T08:49:52.294Z,1014.24
2023-02-26T08:50:52.306Z,1014.22
2023-02-26T08:51:52.274Z,1014.25
2023-02-26T08:52:52.261Z,1014.20
2023-02-26T08:53:52.254Z,1014.23
2023-02-26T08:54:52.241Z,1014.24
2023-02-26T08:55:52.302Z,1014.27
2023-02-26T08:56:52.255Z,1014.30
2023-02-26T08:57:52.267Z,1014.31
2023-02-26T08:58:52.235Z,1014.23
2023-02-26T08:59:52.188Z,1014.27
2023-02-26T09:00:52.212Z,1014.34
2023-02-26T09:01:52.276Z,1014.38
2023-02-26T09:02:52.207Z,1014.42
2023-02-26T09:03:52.144Z,1014.44
2023-02-26T09:04:52.130Z,1014.51
2023-02-26T09:05:52.213Z,1014.42
2023-02-26T09:06:52.109Z,1014.39
2023-02-26T09:07:52.100Z,1014.44
2023-02-26T09:08:52.086Z,1014.42
2023-02-26T09:09:52.075Z,1014.41
2023-02-26T09:10:52.092Z,1014.44
2023-02-26T09:11:52.056Z,1014.30
2023-02-26T09:12:52.042Z,1014.42
2023-02-26T09:13:52.052Z,1014.36
2023-02-26T09:14:52.023Z,1014.38
2023-02-26T09:15:52.070Z,1014.42
2023-02-26T09:16:51.997Z,1014.53
2023-02-26T09:17:51.987Z,1014.53
2023-02-26T09:18:51.979Z,1014.55
2023-02-26T09:19:51.967Z,1014.55
2023-02-26T09:20:52.328Z,1014.61
2023-02-26T09:21:51.951Z,1014.63
2023-02-26T09:22:51.940Z,1014.57
2023-02-26T09:23:51.922Z,1014.49
2023-02-26T09:24:51.934Z,1014.67
2023-02-26T09:25:51.917Z,1014.63
2023-02-26T09:26:51.889Z,1014.73
2023-02-26T09:27:51.884Z,1014.68
2023-02-26T09:28:51.863Z,1014.84
2023-02-26T09:29:51.911Z,1014.83
2023-02-26T09:30:51.926Z,1014.85
2023-02-26T09:31:52.002Z,1014.79
2023-02-26T09:32:51.932Z,1014.69
2023-02-26T09:33:51.815Z,1014.78
2023-02-26T09:34:51.798Z,1014.90
2023-02-26T09:35:51.802Z,1014.87
2023-02-26T09:36:51.778Z,1014.75
2023-02-26T09:37:51.772Z,1014.90
2023-02-26T09:38:51.766Z,1014.73
2023-02-26T09:39:53.954Z,1014.94
2023-02-26T09:40:51.745Z,1015.03
2023-02-26T09:41:51.736Z,1015.02
2023-02-26T09:42:51.716Z,1015.03
2023-02-26T09:43:51.716Z,1015.03
2023-02-26T09:44:51.689Z,1015.03
2023-02-26T09:45:51.787Z,1014.93
2023-02-26T09:46:51.668Z,1015.08
2023-02-26T09:47:51.660Z,1015.06
2023-02-26T09:48:51.654Z,1015.12
2023-02-26T09:49:51.638Z,1015.15
2023-02-26T09:50:51.666Z,1015.12
2023-02-26T09:51:51.616Z,1015.12
2023-02-26T09:52:51.602Z,1015.10
2023-02-26T09:53:51.595Z,1015.13
2023-02-26T09:54:51.583Z,1015.17
2023-02-26T09:55:51.647Z,1014.97
2023-02-26T09:56:51.564Z,1015.04
2023-02-26T09:57:51.554Z,1015.12
2023-02-26T09:58:51.542Z,1015.06
2023-02-26T09:59:51.535Z,1015.04
2023-02-26T10:00:51.536Z,1015.25
2023-02-26T10:01:51.612Z,1015.12
2023-02-26T10:02:51.504Z,1015.35
2023-02-26T10:03:51.563Z,1015.14
2023-02-26T10:04:51.478Z,1015.17
2023-02-26T10:05:51.516Z,1015.26
2023-02-26T10:06:51.486Z,1015.42
2023-02-26T10:07:51.465Z,1015.14
2023-02-26T10:08:51.450Z,1015.24
2023-02-26T10:09:51.465Z,1015.29
2023-02-26T10:10:51.441Z,1015.27
2023-02-26T10:11:51.413Z,1015.42
2023-02-26T10:12:51.437Z,1015.32
2023-02-26T10:13:57.717Z,1015.32
2023-02-26T10:14:52.376Z,1015.33
2023-02-26T10:15:51.389Z,1015.35
2023-02-26T10:16:51.419Z,1015.39
2023-02-26T10:17:51.386Z,1015.33
2023-02-26T10:18:51.351Z,1015.57
2023-02-26T10:19:51.314Z,1015.55
2023-02-26T10:20:51.398Z,1015.62
2023-02-26T10:21:51.293Z,1015.59
2023-02-26T10:22:51.289Z,1015.60
2023-02-26T10:23:51.270Z,1015.56
2023-02-26T10:24:51.270Z,1015.61
2023-02-26T10:25:51.266Z,1015.62
2023-02-26T10:26:51.262Z,1015.59
2023-02-26T10:27:51.228Z,1015.65
2023-02-26T10:28:51.214Z,1015.68
2023-02-26T10:29:51.204Z,1015.66
2023-02-26T10:30:51.241Z,1015.65
2023-02-26T10:31:51.252Z,1015.68
2023-02-26T10:32:51.239Z,1015.66
2023-02-26T10:33:51.178Z,1015.62
2023-02-26T10:34:51.210Z,1015.65
2023-02-26T10:35:51.148Z,1015.67
2023-02-26T10:36:51.129Z,1015.67
2023-02-26T10:37:51.116Z,1015.74
2023-02-26T10:38:51.140Z,1015.75
2023-02-26T10:39:51.091Z,1015.79
2023-02-26T10:40:51.100Z,1015.76
2023-02-26T10:41:51.072Z,1015.86
2023-02-26T10:42:51.064Z,1015.80
2023-02-26T10:43:51.057Z,1015.68
2023-02-26T10:44:51.050Z,1015.93
2023-02-26T10:45:51.133Z,1015.87
2023-02-26T10:46:51.019Z,1015.83
2023-02-26T10:47:51.007Z,1015.59
2023-02-26T10:48:50.995Z,1015.62
2023-02-26T10:49:51.009Z,1015.68
2023-02-26T10:50:51.041Z,1015.68
2023-02-26T10:51:50.984Z,1015.66
2023-02-26T10:52:50.950Z,1015.73
2023-02-26T10:53:50.943Z,1015.73
2023-02-26T10:54:50.933Z,1015.64
2023-02-26T10:55:50.948Z,1015.69
2023-02-26T10:56:50.987Z,1015.74
2023-02-26T10:57:50.902Z,1015.73
2023-02-26T10:58:50.887Z,1015.77
2023-02-26T10:59:50.892Z,1015.74
2023-02-26T11:00:50.877Z,1015.86
2023-02-26T11:01:50.884Z,1015.88
2023-02-26T11:02:50.843Z,1015.88
2023-02-26T11:03:50.835Z,1015.90
2023-02-26T11:04:59.275Z,1015.88
2023-02-26T11:05:51.860Z,1015.88
2023-02-26T11:06:50.821Z,1015.91
2023-02-26T11:07:50.796Z,1015.86
2023-02-26T11:08:50.784Z,1015.89
2023-02-26T11:09:50.773Z,1015.84
2023-02-26T11:10:50.767Z,1015.89
2023-02-26T11:11:50.762Z,1015.90
2023-02-26T11:12:50.740Z,1015.88
2023-02-26T11:13:50.734Z,1015.84
2023-02-26T11:14:50.718Z,1015.89
2023-02-26T11:15:50.744Z,1015.87
2023-02-26T11:16:50.720Z,1015.87
2023-02-26T11:17:50.692Z,1015.88
2023-02-26T11:18:50.681Z,1015.99
2023-02-26T11:19:50.664Z,1016.04
2023-02-26T11:20:50.672Z,1015.98
2023-02-26T11:21:50.680Z,1016.01
2023-02-26T11:22:50.647Z,1016.08
2023-02-26T11:23:50.622Z,1016.08
2023-02-26T11:24:50.617Z,1016.11
2023-02-26T11:25:50.599Z,1016.09
2023-02-26T11:26:50.590Z,1016.10
2023-02-26T11:27:50.596Z,1016.11
2023-02-26T11:28:50.572Z,1016.11
2023-02-26T11:29:50.562Z,1016.18
2023-02-26T11:30:50.651Z,1016.15
2023-02-26T11:31:50.737Z,1016.14
2023-02-26T11:32:50.540Z,1016.21
2023-02-26T11:33:50.512Z,1016.21
2023-02-26T11:34:50.509Z,1016.17
2023-02-26T11:35:50.492Z,1016.23
2023-02-26T11:36:50.495Z,1016.20
2023-02-26T11:37:50.588Z,1016.18
2023-02-26T11:38:50.459Z,1016.22
2023-02-26T11:39:50.445Z,1016.28
2023-02-26T11:40:50.435Z,1016.26
2023-02-26T11:41:50.422Z,1016.30
2023-02-26T11:42:50.458Z,1016.32
2023-02-26T11:43:50.403Z,1016.29
2023-02-26T11:44:50.390Z,1016.29
2023-02-26T11:45:50.394Z,1016.32
2023-02-26T11:46:50.419Z,1016.31
2023-02-26T11:47:50.358Z,1016.32
2023-02-26T11:48:50.349Z,1016.32
2023-02-26T11:49:50.335Z,1016.28
2023-02-26T11:50:50.334Z,1016.28
2023-02-26T11:51:50.338Z,1016.25
2023-02-26T11:52:50.308Z,1016.30
2023-02-26T11:53:50.313Z,1016.32
2023-02-26T11:54:50.282Z,1016.36
2023-02-26T11:55:50.278Z,1016.33
2023-02-26T11:56:50.295Z,1016.35
2023-02-26T11:57:50.243Z,1016.31
2023-02-26T11:58:50.234Z,1016.31
2023-02-26T11:59:50.227Z,1016.33
2023-02-26T12:00:50.212Z,1016.37
2023-02-26T12:01:50.250Z,1016.35
2023-02-26T12:02:50.248Z,1016.45
2023-02-26T12:03:50.223Z,1016.40
2023-02-26T12:04:50.171Z,1016.43
2023-02-26T12:05:50.159Z,1016.40